Broderick, California
Current Conditions -  °F | °C
As of 4:53 AM on Saturday 25 Oct 2014 (Local Time) from KSAC Reporting Station
Few Clouds Few Clouds  
Wind Chill: 60°   Ceiling: Unl
Heat Index: 60°   Visibility: 10mi
Dew Point: 53°   Wind: 6mph
Humidity: 78%   Direction: 120°ESE
Pressure: 29.91"   Gusts: NA
Location:  38.5921°N, 121.545°W
Report Text: KSAC 251153Z AUTO 12005KT 10SM FEW050 16/12 A2991 RMK AO2 SLP127 T01560117 10172 20156 58005
Loading
Personal Weather Stations






























Interactive Weather Map
Tropical Storm Tracking
New forecast layout! Learn more

10-Day Weather Forecast

Advertisements
Track Severe Weather on mobile